^^
Meteo Knjazevac Station Historical Data
Daily Summary for March 30, 2021 Units:  Metric    English   Both
Daily Weekly Monthly Yearly Custom
  High: Low: Average:
Temperature: 21.8 °C 19.1 °C 20.1 °C
Dew Point: 18.8 °C 17.4 °C 17.9 °C
Humidity: 91% 83% 88%
Wind Speed: 4.8km/h 1.6km/h 3.9km/h
Wind Gust: 11.3km/h - -
Wind- - West
Pressure: 1015.5 hPa 1015.1 hPa -
Precipitation: 0 mm    
Historical Graphs
 
 
Tabular Data for March 30, 2021
Time Temperature Dew Point Pressure Wind Wind Speed Wind Gust Humidity Rainfall Rate (Hourly) solar Conditions
00:00 21.8 °C 18.8 °C 1015.1 hPa West 3.2 km/h 6.4 km/h 83% 0 mm 0 W/m2
00:10 21.6 °C 18.6 °C 1015.1 hPa WSW 1.6 km/h 4.8 km/h 83% 0 mm 0 W/m2
00:20 21.3 °C 18.5 °C 1015.1 hPa West 3.2 km/h 6.4 km/h 84% 0 mm 0 W/m2
00:30 21.1 °C 18.3 °C 1015.1 hPa WSW 3.2 km/h 4.8 km/h 84% 0 mm 0 W/m2
00:40 21 °C 18.4 °C 1015.1 hPa West 3.2 km/h 6.4 km/h 85% 0 mm 0 W/m2
00:50 20.9 °C 18.3 °C 1015.1 hPa West 4.8 km/h 8 km/h 85% 0 mm 0 W/m2
01:00 20.7 °C 18.3 °C 1015.5 hPa West 4.8 km/h 8 km/h 86% 0 mm 0 W/m2
01:10 20.5 °C 18.1 °C 1015.5 hPa West 4.8 km/h 8 km/h 86% 0 mm 0 W/m2
01:20 20.3 °C 17.9 °C 1015.5 hPa West 3.2 km/h 9.7 km/h 86% 0 mm 0 W/m2
01:30 20.2 °C 18.2 °C 1015.1 hPa West 4.8 km/h 8 km/h 88% 0 mm 0 W/m2
01:40 20 °C 17.9 °C 1015.5 hPa West 1.6 km/h 6.4 km/h 88% 0 mm 0 W/m2
01:50 19.9 °C 17.8 °C 1015.5 hPa West 4.8 km/h 9.7 km/h 88% 0 mm 0 W/m2
02:00 19.7 °C 17.8 °C 1015.1 hPa WSW 4.8 km/h 8 km/h 89% 0 mm 0 W/m2
02:10 19.6 °C 17.7 °C 1015.1 hPa West 4.8 km/h 11.3 km/h 89% 0 mm 0 W/m2
02:20 19.7 °C 17.8 °C 1015.1 hPa West 3.2 km/h 11.3 km/h 89% 0 mm 0 W/m2
02:30 19.6 °C 17.7 °C 1015.1 hPa West 3.2 km/h 8 km/h 89% 0 mm 0 W/m2
02:40 19.3 °C 17.4 °C 1015.5 hPa West 4.8 km/h 8 km/h 89% 0 mm 0 W/m2
02:50 19.1 °C 17.4 °C 1015.5 hPa West 4.8 km/h 9.7 km/h 90% 0 mm 0 W/m2
03:00 19.1 °C 17.4 °C 1015.5 hPa West 4.8 km/h 9.7 km/h 90% 0 mm 0 W/m2
03:10 19.1 °C 17.6 °C 1015.5 hPa West 4.8 km/h 11.3 km/h 91% 0 mm 0 W/m2
03:20 19.2 °C 17.5 °C 1015.5 hPa West 3.2 km/h 8 km/h 90% 0 mm 0 W/m2
03:30 19.2 °C 17.5 °C 1015.5 hPa West 3.2 km/h 8 km/h 90% 0 mm 0 W/m2
03:40 19.1 °C 17.4 °C 1015.5 hPa West 3.2 km/h 6.4 km/h 90% 0 mm 0 W/m2
Knjazevac, Serbia
Compliments of Weather Underground - 2 mb